sensor_id;sensor_type;location;lat;lon;timestamp;temperature;humidity
17619;DHT22;8928;51.678;6.074;2023-11-21T00:01:52;7.80;99.90
17619;DHT22;8928;51.678;6.074;2023-11-21T00:04:39;7.90;99.90
17619;DHT22;8928;51.678;6.074;2023-11-21T00:07:26;7.90;99.90
17619;DHT22;8928;51.678;6.074;2023-11-21T00:10:13;7.90;99.90
17619;DHT22;8928;51.678;6.074;2023-11-21T00:13:01;7.90;99.90
17619;DHT22;8928;51.678;6.074;2023-11-21T00:15:50;7.90;99.90
17619;DHT22;8928;51.678;6.074;2023-11-21T00:18:37;8.00;99.90
17619;DHT22;8928;51.678;6.074;2023-11-21T00:21:24;8.00;99.90
17619;DHT22;8928;51.678;6.074;2023-11-21T00:24:12;8.00;99.90
17619;DHT22;8928;51.678;6.074;2023-11-21T00:26:59;8.00;99.90
17619;DHT22;8928;51.678;6.074;2023-11-21T00:29:46;8.00;99.90
17619;DHT22;8928;51.678;6.074;2023-11-21T00:32:35;8.00;99.90
17619;DHT22;8928;51.678;6.074;2023-11-21T00:35:22;8.10;99.90
17619;DHT22;8928;51.678;6.074;2023-11-21T00:38:09;8.10;99.90
17619;DHT22;8928;51.678;6.074;2023-11-21T00:40:56;8.00;99.90
17619;DHT22;8928;51.678;6.074;2023-11-21T00:43:43;8.10;99.90
17619;DHT22;8928;51.678;6.074;2023-11-21T00:46:31;8.00;99.90
17619;DHT22;8928;51.678;6.074;2023-11-21T00:49:19;8.00;99.90
17619;DHT22;8928;51.678;6.074;2023-11-21T00:52:06;8.00;99.90
17619;DHT22;8928;51.678;6.074;2023-11-21T00:54:53;7.90;99.90
17619;DHT22;8928;51.678;6.074;2023-11-21T00:57:40;7.90;99.90
17619;DHT22;8928;51.678;6.074;2023-11-21T01:00:28;7.80;99.90
17619;DHT22;8928;51.678;6.074;2023-11-21T01:03:15;7.80;99.90
17619;DHT22;8928;51.678;6.074;2023-11-21T01:06:04;7.80;99.90
17619;DHT22;8928;51.678;6.074;2023-11-21T01:08:53;7.80;99.90
17619;DHT22;8928;51.678;6.074;2023-11-21T01:11:40;7.80;99.90
17619;DHT22;8928;51.678;6.074;2023-11-21T01:14:27;7.80;99.90
17619;DHT22;8928;51.678;6.074;2023-11-21T01:17:14;7.80;99.90
17619;DHT22;8928;51.678;6.074;2023-11-21T01:20:01;7.80;99.90
17619;DHT22;8928;51.678;6.074;2023-11-21T01:22:53;7.90;99.90
17619;DHT22;8928;51.678;6.074;2023-11-21T01:25:41;7.90;99.90
17619;DHT22;8928;51.678;6.074;2023-11-21T01:28:28;7.90;99.90
17619;DHT22;8928;51.678;6.074;2023-11-21T01:31:15;8.00;99.90
17619;DHT22;8928;51.678;6.074;2023-11-21T01:34:02;8.00;99.90
17619;DHT22;8928;51.678;6.074;2023-11-21T01:36:50;8.00;99.90
17619;DHT22;8928;51.678;6.074;2023-11-21T01:39:39;8.10;99.90
17619;DHT22;8928;51.678;6.074;2023-11-21T01:42:26;8.10;99.90
17619;DHT22;8928;51.678;6.074;2023-11-21T01:45:13;8.10;99.90
17619;DHT22;8928;51.678;6.074;2023-11-21T01:48:00;8.20;99.90
17619;DHT22;8928;51.678;6.074;2023-11-21T01:50:48;8.20;99.90
17619;DHT22;8928;51.678;6.074;2023-11-21T01:53:35;8.20;99.90
17619;DHT22;8928;51.678;6.074;2023-11-21T01:56:24;8.20;99.90
17619;DHT22;8928;51.678;6.074;2023-11-21T01:59:12;8.20;99.90
17619;DHT22;8928;51.678;6.074;2023-11-21T02:02:00;8.30;99.90
17619;DHT22;8928;51.678;6.074;2023-11-21T02:04:48;8.30;99.90
17619;DHT22;8928;51.678;6.074;2023-11-21T02:07:35;8.30;99.90
17619;DHT22;8928;51.678;6.074;2023-11-21T02:10:23;8.30;99.90
17619;DHT22;8928;51.678;6.074;2023-11-21T02:13:12;8.30;99.90
17619;DHT22;8928;51.678;6.074;2023-11-21T02:15:59;8.30;99.90
17619;DHT22;8928;51.678;6.074;2023-11-21T02:18:46;8.40;99.90
17619;DHT22;8928;51.678;6.074;2023-11-21T02:21:34;8.40;99.90
17619;DHT22;8928;51.678;6.074;2023-11-21T02:24:23;8.40;99.90
17619;DHT22;8928;51.678;6.074;2023-11-21T02:27:11;8.40;99.90
17619;DHT22;8928;51.678;6.074;2023-11-21T02:29:58;8.40;99.90
17619;DHT22;8928;51.678;6.074;2023-11-21T02:32:47;8.40;99.90
17619;DHT22;8928;51.678;6.074;2023-11-21T02:35:34;8.40;99.90
17619;DHT22;8928;51.678;6.074;2023-11-21T02:38:21;8.40;99.90
17619;DHT22;8928;51.678;6.074;2023-11-21T02:41:10;8.40;99.90
17619;DHT22;8928;51.678;6.074;2023-11-21T02:43:57;8.40;99.90
17619;DHT22;8928;51.678;6.074;2023-11-21T02:46:44;8.50;99.90
17619;DHT22;8928;51.678;6.074;2023-11-21T02:49:31;8.50;99.90
17619;DHT22;8928;51.678;6.074;2023-11-21T02:52:20;8.50;99.90
17619;DHT22;8928;51.678;6.074;2023-11-21T02:55:08;8.50;99.90
17619;DHT22;8928;51.678;6.074;2023-11-21T02:57:56;8.50;99.90
17619;DHT22;8928;51.678;6.074;2023-11-21T03:00:43;8.50;99.90
17619;DHT22;8928;51.678;6.074;2023-11-21T03:03:30;8.50;99.90
17619;DHT22;8928;51.678;6.074;2023-11-21T03:06:17;8.40;99.90
17619;DHT22;8928;51.678;6.074;2023-11-21T03:09:04;8.50;99.90
17619;DHT22;8928;51.678;6.074;2023-11-21T03:11:52;8.50;99.90
17619;DHT22;8928;51.678;6.074;2023-11-21T03:14:41;8.40;99.90
17619;DHT22;8928;51.678;6.074;2023-11-21T03:17:28;8.40;99.90
17619;DHT22;8928;51.678;6.074;2023-11-21T03:20:15;8.40;99.90
17619;DHT22;8928;51.678;6.074;2023-11-21T03:23:02;8.40;99.90
17619;DHT22;8928;51.678;6.074;2023-11-21T03:25:50;8.40;99.90
17619;DHT22;8928;51.678;6.074;2023-11-21T03:28:37;8.40;99.90
17619;DHT22;8928;51.678;6.074;2023-11-21T03:31:26;8.40;99.90
17619;DHT22;8928;51.678;6.074;2023-11-21T03:34:19;8.40;99.90
17619;DHT22;8928;51.678;6.074;2023-11-21T03:37:06;8.40;99.90
17619;DHT22;8928;51.678;6.074;2023-11-21T03:39:54;8.40;99.90
17619;DHT22;8928;51.678;6.074;2023-11-21T03:42:41;8.40;99.90
17619;DHT22;8928;51.678;6.074;2023-11-21T03:45:28;8.40;99.90
17619;DHT22;8928;51.678;6.074;2023-11-21T03:48:17;8.40;99.90
17619;DHT22;8928;51.678;6.074;2023-11-21T03:51:04;8.40;99.90
17619;DHT22;8928;51.678;6.074;2023-11-21T03:53:51;8.40;99.90
17619;DHT22;8928;51.678;6.074;2023-11-21T03:56:39;8.30;99.90
17619;DHT22;8928;51.678;6.074;2023-11-21T03:59:26;8.40;99.90
17619;DHT22;8928;51.678;6.074;2023-11-21T04:02:13;8.40;99.90
17619;DHT22;8928;51.678;6.074;2023-11-21T04:05:02;8.30;99.90
17619;DHT22;8928;51.678;6.074;2023-11-21T04:07:49;8.30;99.90
17619;DHT22;8928;51.678;6.074;2023-11-21T04:10:36;8.30;99.90
17619;DHT22;8928;51.678;6.074;2023-11-21T04:13:25;8.30;99.90
17619;DHT22;8928;51.678;6.074;2023-11-21T04:16:12;8.30;99.90
17619;DHT22;8928;51.678;6.074;2023-11-21T04:18:59;8.30;99.90
17619;DHT22;8928;51.678;6.074;2023-11-21T04:21:48;8.30;99.90
17619;DHT22;8928;51.678;6.074;2023-11-21T04:24:35;8.30;99.90
17619;DHT22;8928;51.678;6.074;2023-11-21T04:27:22;8.30;99.90
17619;DHT22;8928;51.678;6.074;2023-11-21T04:30:10;8.30;99.90
17619;DHT22;8928;51.678;6.074;2023-11-21T04:32:57;8.30;99.90
17619;DHT22;8928;51.678;6.074;2023-11-21T04:35:44;8.30;99.90
17619;DHT22;8928;51.678;6.074;2023-11-21T04:38:33;8.20;99.90
17619;DHT22;8928;51.678;6.074;2023-11-21T04:41:20;8.20;99.90
17619;DHT22;8928;51.678;6.074;2023-11-21T04:44:07;8.20;99.90
17619;DHT22;8928;51.678;6.074;2023-11-21T04:46:54;8.20;99.90
17619;DHT22;8928;51.678;6.074;2023-11-21T04:49:42;8.20;99.90
17619;DHT22;8928;51.678;6.074;2023-11-21T04:52:29;8.20;99.90
17619;DHT22;8928;51.678;6.074;2023-11-21T04:55:17;8.20;99.90
17619;DHT22;8928;51.678;6.074;2023-11-21T04:58:05;8.10;99.90
17619;DHT22;8928;51.678;6.074;2023-11-21T05:00:52;8.10;99.90
17619;DHT22;8928;51.678;6.074;2023-11-21T05:03:39;8.20;99.90
17619;DHT22;8928;51.678;6.074;2023-11-21T05:06:26;8.10;99.90
17619;DHT22;8928;51.678;6.074;2023-11-21T05:09:13;8.20;99.90
17619;DHT22;8928;51.678;6.074;2023-11-21T05:12:03;8.10;99.90
17619;DHT22;8928;51.678;6.074;2023-11-21T05:14:50;8.20;99.90
17619;DHT22;8928;51.678;6.074;2023-11-21T05:17:38;8.20;99.90
17619;DHT22;8928;51.678;6.074;2023-11-21T05:20:28;8.10;99.90
17619;DHT22;8928;51.678;6.074;2023-11-21T05:23:15;8.10;99.90
17619;DHT22;8928;51.678;6.074;2023-11-21T05:26:02;8.10;99.90
17619;DHT22;8928;51.678;6.074;2023-11-21T05:28:50;8.10;99.90
17619;DHT22;8928;51.678;6.074;2023-11-21T05:31:37;8.00;99.90
17619;DHT22;8928;51.678;6.074;2023-11-21T05:34:24;8.00;99.90
17619;DHT22;8928;51.678;6.074;2023-11-21T05:37:12;8.00;99.90
17619;DHT22;8928;51.678;6.074;2023-11-21T05:39:59;8.00;99.90
17619;DHT22;8928;51.678;6.074;2023-11-21T05:42:51;8.00;99.90
17619;DHT22;8928;51.678;6.074;2023-11-21T05:45:39;8.00;99.90
17619;DHT22;8928;51.678;6.074;2023-11-21T05:48:26;8.00;99.90
17619;DHT22;8928;51.678;6.074;2023-11-21T05:51:13;7.90;99.90
17619;DHT22;8928;51.678;6.074;2023-11-21T05:54:01;7.90;99.90
17619;DHT22;8928;51.678;6.074;2023-11-21T05:56:48;8.00;99.90
17619;DHT22;8928;51.678;6.074;2023-11-21T05:59:35;8.00;99.90
17619;DHT22;8928;51.678;6.074;2023-11-21T06:02:23;7.90;99.90
17619;DHT22;8928;51.678;6.074;2023-11-21T06:05:11;8.00;99.90
17619;DHT22;8928;51.678;6.074;2023-11-21T06:07:58;7.90;99.90
17619;DHT22;8928;51.678;6.074;2023-11-21T06:10:46;8.00;99.90
17619;DHT22;8928;51.678;6.074;2023-11-21T06:13:35;7.90;99.90
17619;DHT22;8928;51.678;6.074;2023-11-21T06:16:22;7.90;99.90
17619;DHT22;8928;51.678;6.074;2023-11-21T06:19:10;7.90;99.90
17619;DHT22;8928;51.678;6.074;2023-11-21T06:21:57;7.90;99.90
17619;DHT22;8928;51.678;6.074;2023-11-21T06:24:45;7.90;99.90
17619;DHT22;8928;51.678;6.074;2023-11-21T06:27:32;7.90;99.90
17619;DHT22;8928;51.678;6.074;2023-11-21T06:30:19;7.90;99.90
17619;DHT22;8928;51.678;6.074;2023-11-21T06:33:07;7.90;99.90
17619;DHT22;8928;51.678;6.074;2023-11-21T06:35:55;7.90;99.90
17619;DHT22;8928;51.678;6.074;2023-11-21T06:38:42;7.90;99.90
17619;DHT22;8928;51.678;6.074;2023-11-21T06:41:31;7.90;99.90
17619;DHT22;8928;51.678;6.074;2023-11-21T06:44:19;7.90;99.90
17619;DHT22;8928;51.678;6.074;2023-11-21T06:47:06;7.90;99.90
17619;DHT22;8928;51.678;6.074;2023-11-21T06:49:53;7.90;99.90
17619;DHT22;8928;51.678;6.074;2023-11-21T06:52:41;8.00;99.90
17619;DHT22;8928;51.678;6.074;2023-11-21T06:55:29;7.90;99.90
17619;DHT22;8928;51.678;6.074;2023-11-21T06:58:16;8.00;99.90
17619;DHT22;8928;51.678;6.074;2023-11-21T07:01:04;8.00;99.90
17619;DHT22;8928;51.678;6.074;2023-11-21T07:03:52;8.00;99.90
17619;DHT22;8928;51.678;6.074;2023-11-21T07:06:40;8.00;99.90
17619;DHT22;8928;51.678;6.074;2023-11-21T07:09:28;8.00;99.90
17619;DHT22;8928;51.678;6.074;2023-11-21T07:12:16;8.00;99.90
17619;DHT22;8928;51.678;6.074;2023-11-21T07:15:04;8.00;99.90
17619;DHT22;8928;51.678;6.074;2023-11-21T07:17:54;8.00;99.90
17619;DHT22;8928;51.678;6.074;2023-11-21T07:20:41;8.00;99.90
17619;DHT22;8928;51.678;6.074;2023-11-21T07:29:08;8.00;99.90
17619;DHT22;8928;51.678;6.074;2023-11-21T07:37:11;8.00;99.90
17619;DHT22;8928;51.678;6.074;2023-11-21T07:39:58;8.10;99.90
17619;DHT22;8928;51.678;6.074;2023-11-21T08:16:27;8.30;99.90
17619;DHT22;8928;51.678;6.074;2023-11-21T08:19:14;8.40;99.90
17619;DHT22;8928;51.678;6.074;2023-11-21T08:22:02;8.40;99.90
17619;DHT22;8928;51.678;6.074;2023-11-21T08:24:49;8.40;99.90
17619;DHT22;8928;51.678;6.074;2023-11-21T08:27:37;8.40;99.90
17619;DHT22;8928;51.678;6.074;2023-11-21T08:30:24;8.40;99.90
17619;DHT22;8928;51.678;6.074;2023-11-21T08:33:15;8.40;99.90
17619;DHT22;8928;51.678;6.074;2023-11-21T08:36:07;8.40;99.90
17619;DHT22;8928;51.678;6.074;2023-11-21T08:38:54;8.40;99.90
17619;DHT22;8928;51.678;6.074;2023-11-21T08:41:41;8.40;99.90
17619;DHT22;8928;51.678;6.074;2023-11-21T08:44:28;8.50;99.90
17619;DHT22;8928;51.678;6.074;2023-11-21T08:47:16;8.50;99.90
17619;DHT22;8928;51.678;6.074;2023-11-21T08:50:05;8.50;99.90
17619;DHT22;8928;51.678;6.074;2023-11-21T08:52:53;8.50;99.90
17619;DHT22;8928;51.678;6.074;2023-11-21T08:55:40;8.50;99.90
17619;DHT22;8928;51.678;6.074;2023-11-21T08:58:27;8.50;99.90
17619;DHT22;8928;51.678;6.074;2023-11-21T09:06:26;8.60;99.90
17619;DHT22;8928;51.678;6.074;2023-11-21T09:09:13;8.60;99.90
17619;DHT22;8928;51.678;6.074;2023-11-21T09:14:35;8.60;99.90
17619;DHT22;8928;51.678;6.074;2023-11-21T09:17:22;8.70;99.90
17619;DHT22;8928;51.678;6.074;2023-11-21T09:20:10;8.80;99.90
17619;DHT22;8928;51.678;6.074;2023-11-21T09:22:59;8.90;99.90
17619;DHT22;8928;51.678;6.074;2023-11-21T09:25:46;9.00;99.90
17619;DHT22;8928;51.678;6.074;2023-11-21T09:28:35;9.20;99.90
17619;DHT22;8928;51.678;6.074;2023-11-21T09:34:13;9.30;99.90
17619;DHT22;8928;51.678;6.074;2023-11-21T09:37:01;9.40;99.90
17619;DHT22;8928;51.678;6.074;2023-11-21T09:39:53;9.50;99.90
17619;DHT22;8928;51.678;6.074;2023-11-21T09:42:43;9.50;99.90
17619;DHT22;8928;51.678;6.074;2023-11-21T09:45:35;9.40;99.90
17619;DHT22;8928;51.678;6.074;2023-11-21T09:48:24;9.50;99.90
17619;DHT22;8928;51.678;6.074;2023-11-21T09:51:12;9.50;99.90
17619;DHT22;8928;51.678;6.074;2023-11-21T09:54:01;9.50;99.90
17619;DHT22;8928;51.678;6.074;2023-11-21T09:56:53;9.40;99.90
17619;DHT22;8928;51.678;6.074;2023-11-21T09:59:40;9.30;99.90
17619;DHT22;8928;51.678;6.074;2023-11-21T10:02:28;9.30;99.90
17619;DHT22;8928;51.678;6.074;2023-11-21T10:05:16;9.30;99.90
17619;DHT22;8928;51.678;6.074;2023-11-21T10:08:08;9.20;99.90
17619;DHT22;8928;51.678;6.074;2023-11-21T10:10:55;9.20;99.90
17619;DHT22;8928;51.678;6.074;2023-11-21T10:13:45;9.20;99.90
17619;DHT22;8928;51.678;6.074;2023-11-21T10:16:33;9.10;99.90
17619;DHT22;8928;51.678;6.074;2023-11-21T10:19:21;9.20;99.90
17619;DHT22;8928;51.678;6.074;2023-11-21T10:22:09;9.20;99.90
17619;DHT22;8928;51.678;6.074;2023-11-21T10:24:56;9.20;99.90
17619;DHT22;8928;51.678;6.074;2023-11-21T10:27:47;9.30;99.90
17619;DHT22;8928;51.678;6.074;2023-11-21T10:30:38;9.40;99.90
17619;DHT22;8928;51.678;6.074;2023-11-21T10:33:28;9.40;99.90
17619;DHT22;8928;51.678;6.074;2023-11-21T10:36:25;9.40;99.90
17619;DHT22;8928;51.678;6.074;2023-11-21T10:39:14;9.40;99.90
17619;DHT22;8928;51.678;6.074;2023-11-21T10:42:04;9.40;99.90
17619;DHT22;8928;51.678;6.074;2023-11-21T10:44:55;9.40;99.90
17619;DHT22;8928;51.678;6.074;2023-11-21T10:47:44;9.40;99.90
17619;DHT22;8928;51.678;6.074;2023-11-21T10:50:32;9.50;99.90
17619;DHT22;8928;51.678;6.074;2023-11-21T10:53:20;9.50;99.90
17619;DHT22;8928;51.678;6.074;2023-11-21T10:56:08;9.50;99.90
17619;DHT22;8928;51.678;6.074;2023-11-21T10:58:57;9.50;99.90
17619;DHT22;8928;51.678;6.074;2023-11-21T11:06:57;9.70;99.90
17619;DHT22;8928;51.678;6.074;2023-11-21T11:09:49;9.70;99.90
17619;DHT22;8928;51.678;6.074;2023-11-21T11:17:50;9.90;99.90
17619;DHT22;8928;51.678;6.074;2023-11-21T11:20:37;10.00;99.90
17619;DHT22;8928;51.678;6.074;2023-11-21T11:33:42;10.50;99.90
17619;DHT22;8928;51.678;6.074;2023-11-21T11:36:35;10.40;99.90
17619;DHT22;8928;51.678;6.074;2023-11-21T11:39:30;10.40;99.90
17619;DHT22;8928;51.678;6.074;2023-11-21T11:55:16;10.70;99.90
17619;DHT22;8928;51.678;6.074;2023-11-21T11:58:06;10.70;99.90
17619;DHT22;8928;51.678;6.074;2023-11-21T12:00:53;10.60;99.90
17619;DHT22;8928;51.678;6.074;2023-11-21T12:03:40;10.60;99.90
17619;DHT22;8928;51.678;6.074;2023-11-21T12:06:33;10.50;99.90
17619;DHT22;8928;51.678;6.074;2023-11-21T12:09:21;10.50;99.90
17619;DHT22;8928;51.678;6.074;2023-11-21T12:14:46;10.30;99.90
17619;DHT22;8928;51.678;6.074;2023-11-21T12:17:33;10.30;99.90
17619;DHT22;8928;51.678;6.074;2023-11-21T12:20:21;10.20;99.90
17619;DHT22;8928;51.678;6.074;2023-11-21T12:23:09;10.20;99.90
17619;DHT22;8928;51.678;6.074;2023-11-21T12:25:56;10.30;99.90
17619;DHT22;8928;51.678;6.074;2023-11-21T12:28:44;10.30;99.90
17619;DHT22;8928;51.678;6.074;2023-11-21T12:31:41;10.30;99.90
17619;DHT22;8928;51.678;6.074;2023-11-21T12:34:28;10.30;99.90
17619;DHT22;8928;51.678;6.074;2023-11-21T12:37:16;10.40;99.90
17619;DHT22;8928;51.678;6.074;2023-11-21T12:40:05;10.40;99.90
17619;DHT22;8928;51.678;6.074;2023-11-21T12:42:55;10.50;99.90
17619;DHT22;8928;51.678;6.074;2023-11-21T12:45:43;10.50;99.90
17619;DHT22;8928;51.678;6.074;2023-11-21T12:48:31;10.50;99.90
17619;DHT22;8928;51.678;6.074;2023-11-21T12:53:54;10.50;99.90
17619;DHT22;8928;51.678;6.074;2023-11-21T12:56:45;10.60;99.90
17619;DHT22;8928;51.678;6.074;2023-11-21T12:59:34;10.60;99.90
17619;DHT22;8928;51.678;6.074;2023-11-21T13:07:41;10.70;99.90
17619;DHT22;8928;51.678;6.074;2023-11-21T13:10:34;10.70;99.90
17619;DHT22;8928;51.678;6.074;2023-11-21T13:13:22;10.70;99.90
17619;DHT22;8928;51.678;6.074;2023-11-21T13:16:10;10.60;99.90
17619;DHT22;8928;51.678;6.074;2023-11-21T13:18:58;10.60;99.90
17619;DHT22;8928;51.678;6.074;2023-11-21T13:21:48;10.60;99.90
17619;DHT22;8928;51.678;6.074;2023-11-21T13:24:37;10.60;99.90
17619;DHT22;8928;51.678;6.074;2023-11-21T13:27:24;10.50;99.90
17619;DHT22;8928;51.678;6.074;2023-11-21T13:30:13;10.50;99.90
17619;DHT22;8928;51.678;6.074;2023-11-21T13:33:02;10.50;99.90
17619;DHT22;8928;51.678;6.074;2023-11-21T13:35:52;10.50;99.90
17619;DHT22;8928;51.678;6.074;2023-11-21T13:38:39;10.50;99.90
17619;DHT22;8928;51.678;6.074;2023-11-21T13:41:30;10.40;99.90
17619;DHT22;8928;51.678;6.074;2023-11-21T13:44:17;10.30;99.90
17619;DHT22;8928;51.678;6.074;2023-11-21T13:47:12;10.30;99.90
17619;DHT22;8928;51.678;6.074;2023-11-21T13:49:59;10.30;99.90
17619;DHT22;8928;51.678;6.074;2023-11-21T13:52:47;10.30;99.90
17619;DHT22;8928;51.678;6.074;2023-11-21T13:55:34;10.30;99.90
17619;DHT22;8928;51.678;6.074;2023-11-21T13:58:23;10.30;99.90
17619;DHT22;8928;51.678;6.074;2023-11-21T14:01:21;10.30;99.90
17619;DHT22;8928;51.678;6.074;2023-11-21T14:04:39;10.20;99.90
17619;DHT22;8928;51.678;6.074;2023-11-21T14:07:39;10.20;99.90
17619;DHT22;8928;51.678;6.074;2023-11-21T14:10:33;10.20;99.90
17619;DHT22;8928;51.678;6.074;2023-11-21T14:13:13;10.10;99.90
17619;DHT22;8928;51.678;6.074;2023-11-21T14:16:04;10.10;99.90
17619;DHT22;8928;51.678;6.074;2023-11-21T14:18:52;10.00;99.90
17619;DHT22;8928;51.678;6.074;2023-11-21T14:26:57;9.90;99.90
17619;DHT22;8928;51.678;6.074;2023-11-21T14:29:45;9.90;99.90
17619;DHT22;8928;51.678;6.074;2023-11-21T14:32:34;9.90;99.90
17619;DHT22;8928;51.678;6.074;2023-11-21T14:35:23;9.90;99.90
17619;DHT22;8928;51.678;6.074;2023-11-21T14:38:12;9.90;99.90
17619;DHT22;8928;51.678;6.074;2023-11-21T14:43:35;9.80;99.90
17619;DHT22;8928;51.678;6.074;2023-11-21T14:46:24;9.80;99.90
17619;DHT22;8928;51.678;6.074;2023-11-21T14:49:12;9.80;99.90
17619;DHT22;8928;51.678;6.074;2023-11-21T14:54:40;9.70;99.90
17619;DHT22;8928;51.678;6.074;2023-11-21T14:57:31;9.70;99.90
17619;DHT22;8928;51.678;6.074;2023-11-21T15:00:19;9.70;99.90
17619;DHT22;8928;51.678;6.074;2023-11-21T15:05:50;9.70;99.90
17619;DHT22;8928;51.678;6.074;2023-11-21T15:08:37;9.70;99.90
17619;DHT22;8928;51.678;6.074;2023-11-21T15:13:59;9.70;99.90
17619;DHT22;8928;51.678;6.074;2023-11-21T15:16:47;9.70;99.90
17619;DHT22;8928;51.678;6.074;2023-11-21T15:19:37;9.60;99.90
17619;DHT22;8928;51.678;6.074;2023-11-21T15:22:26;9.60;99.90
17619;DHT22;8928;51.678;6.074;2023-11-21T15:25:14;9.60;99.90
17619;DHT22;8928;51.678;6.074;2023-11-21T15:28:01;9.50;99.90
17619;DHT22;8928;51.678;6.074;2023-11-21T15:33:25;9.40;99.90
17619;DHT22;8928;51.678;6.074;2023-11-21T15:36:13;9.40;99.90
17619;DHT22;8928;51.678;6.074;2023-11-21T15:39:02;9.40;99.90
17619;DHT22;8928;51.678;6.074;2023-11-21T15:41:49;9.40;99.90
17619;DHT22;8928;51.678;6.074;2023-11-21T15:44:36;9.30;99.90
17619;DHT22;8928;51.678;6.074;2023-11-21T15:47:24;9.30;99.90
17619;DHT22;8928;51.678;6.074;2023-11-21T15:50:11;9.20;99.90
17619;DHT22;8928;51.678;6.074;2023-11-21T15:52:59;9.20;99.90
17619;DHT22;8928;51.678;6.074;2023-11-21T15:55:49;9.20;99.90
17619;DHT22;8928;51.678;6.074;2023-11-21T15:58:38;9.10;99.90
17619;DHT22;8928;51.678;6.074;2023-11-21T16:09:06;9.00;99.90
17619;DHT22;8928;51.678;6.074;2023-11-21T16:12:04;9.00;99.90
17619;DHT22;8928;51.678;6.074;2023-11-21T16:14:51;8.90;99.90
17619;DHT22;8928;51.678;6.074;2023-11-21T16:17:39;8.80;99.90
17619;DHT22;8928;51.678;6.074;2023-11-21T16:20:27;8.80;99.90
17619;DHT22;8928;51.678;6.074;2023-11-21T16:23:14;8.70;99.90
17619;DHT22;8928;51.678;6.074;2023-11-21T16:26:02;8.60;99.90
17619;DHT22;8928;51.678;6.074;2023-11-21T16:28:52;8.50;99.90
17619;DHT22;8928;51.678;6.074;2023-11-21T16:31:39;8.50;99.90
17619;DHT22;8928;51.678;6.074;2023-11-21T16:34:26;8.40;99.90
17619;DHT22;8928;51.678;6.074;2023-11-21T16:37:14;8.30;99.90
17619;DHT22;8928;51.678;6.074;2023-11-21T16:40:02;8.30;99.90
17619;DHT22;8928;51.678;6.074;2023-11-21T16:42:52;8.20;99.90
17619;DHT22;8928;51.678;6.074;2023-11-21T16:45:41;8.20;99.90
17619;DHT22;8928;51.678;6.074;2023-11-21T16:48:34;8.20;99.90
17619;DHT22;8928;51.678;6.074;2023-11-21T16:51:21;8.20;99.90
17619;DHT22;8928;51.678;6.074;2023-11-21T16:54:08;8.10;99.90
17619;DHT22;8928;51.678;6.074;2023-11-21T16:56:55;8.00;99.90
17619;DHT22;8928;51.678;6.074;2023-11-21T16:59:42;8.00;99.90
17619;DHT22;8928;51.678;6.074;2023-11-21T17:02:31;8.00;99.90
17619;DHT22;8928;51.678;6.074;2023-11-21T17:05:18;8.00;99.90
17619;DHT22;8928;51.678;6.074;2023-11-21T17:08:05;7.90;99.90
17619;DHT22;8928;51.678;6.074;2023-11-21T17:10:56;7.90;99.90
17619;DHT22;8928;51.678;6.074;2023-11-21T17:13:44;7.80;99.90
17619;DHT22;8928;51.678;6.074;2023-11-21T17:16:31;7.70;99.90
17619;DHT22;8928;51.678;6.074;2023-11-21T17:19:19;7.60;99.90
17619;DHT22;8928;51.678;6.074;2023-11-21T17:22:06;7.60;99.90
17619;DHT22;8928;51.678;6.074;2023-11-21T17:24:53;7.60;99.90
17619;DHT22;8928;51.678;6.074;2023-11-21T17:27:41;7.60;99.90
17619;DHT22;8928;51.678;6.074;2023-11-21T17:30:28;7.60;99.90
17619;DHT22;8928;51.678;6.074;2023-11-21T17:33:14;7.60;99.90
17619;DHT22;8928;51.678;6.074;2023-11-21T17:36:03;7.50;99.90
17619;DHT22;8928;51.678;6.074;2023-11-21T17:38:51;7.50;99.90
17619;DHT22;8928;51.678;6.074;2023-11-21T17:44:14;7.40;99.90
17619;DHT22;8928;51.678;6.074;2023-11-21T17:47:03;7.30;99.90
17619;DHT22;8928;51.678;6.074;2023-11-21T17:49:50;7.20;99.90
17619;DHT22;8928;51.678;6.074;2023-11-21T17:55:21;7.00;99.90
17619;DHT22;8928;51.678;6.074;2023-11-21T17:58:08;6.90;99.90
17619;DHT22;8928;51.678;6.074;2023-11-21T18:00:56;6.80;99.90
17619;DHT22;8928;51.678;6.074;2023-11-21T18:03:43;6.80;99.90
17619;DHT22;8928;51.678;6.074;2023-11-21T18:06:30;6.70;99.90
17619;DHT22;8928;51.678;6.074;2023-11-21T18:09:17;6.60;99.90
17619;DHT22;8928;51.678;6.074;2023-11-21T18:14:41;6.40;99.90
17619;DHT22;8928;51.678;6.074;2023-11-21T18:17:28;6.40;99.90
17619;DHT22;8928;51.678;6.074;2023-11-21T18:20:15;6.30;99.90
17619;DHT22;8928;51.678;6.074;2023-11-21T18:23:02;6.30;99.90
17619;DHT22;8928;51.678;6.074;2023-11-21T18:25:50;6.20;99.90
17619;DHT22;8928;51.678;6.074;2023-11-21T18:28:37;6.10;99.90
17619;DHT22;8928;51.678;6.074;2023-11-21T18:31:27;6.10;99.90
17619;DHT22;8928;51.678;6.074;2023-11-21T18:34:14;6.00;99.90
17619;DHT22;8928;51.678;6.074;2023-11-21T18:37:01;5.90;99.90
17619;DHT22;8928;51.678;6.074;2023-11-21T18:39:48;5.90;99.90
17619;DHT22;8928;51.678;6.074;2023-11-21T18:47:47;5.90;99.90
17619;DHT22;8928;51.678;6.074;2023-11-21T18:50:34;5.80;99.90
17619;DHT22;8928;51.678;6.074;2023-11-21T18:53:14;5.80;99.90
17619;DHT22;8928;51.678;6.074;2023-11-21T18:56:01;5.80;99.90
17619;DHT22;8928;51.678;6.074;2023-11-21T18:58:48;5.80;99.90
17619;DHT22;8928;51.678;6.074;2023-11-21T19:01:35;5.80;99.90
17619;DHT22;8928;51.678;6.074;2023-11-21T19:04:24;5.90;99.90
17619;DHT22;8928;51.678;6.074;2023-11-21T19:07:11;5.90;99.90
17619;DHT22;8928;51.678;6.074;2023-11-21T19:10:00;5.80;99.90
17619;DHT22;8928;51.678;6.074;2023-11-21T19:12:47;5.90;99.90
17619;DHT22;8928;51.678;6.074;2023-11-21T19:15:36;5.80;99.90
17619;DHT22;8928;51.678;6.074;2023-11-21T19:18:24;5.90;99.90
17619;DHT22;8928;51.678;6.074;2023-11-21T19:21:16;5.80;99.90
17619;DHT22;8928;51.678;6.074;2023-11-21T19:24:04;5.80;99.90
17619;DHT22;8928;51.678;6.074;2023-11-21T19:26:52;5.70;99.90
17619;DHT22;8928;51.678;6.074;2023-11-21T19:29:39;5.70;99.90
17619;DHT22;8928;51.678;6.074;2023-11-21T19:37:38;5.50;99.90
17619;DHT22;8928;51.678;6.074;2023-11-21T19:40:25;5.50;99.90
17619;DHT22;8928;51.678;6.074;2023-11-21T19:43:12;5.50;99.90
17619;DHT22;8928;51.678;6.074;2023-11-21T19:45:59;5.50;99.90
17619;DHT22;8928;51.678;6.074;2023-11-21T19:48:48;5.40;99.90
17619;DHT22;8928;51.678;6.074;2023-11-21T20:02:01;5.30;99.90
17619;DHT22;8928;51.678;6.074;2023-11-21T20:04:48;5.20;99.90
17619;DHT22;8928;51.678;6.074;2023-11-21T20:07:35;5.30;99.90
17619;DHT22;8928;51.678;6.074;2023-11-21T20:10:22;5.20;99.90
17619;DHT22;8928;51.678;6.074;2023-11-21T20:13:09;5.20;99.90
17619;DHT22;8928;51.678;6.074;2023-11-21T20:15:56;5.20;99.90
17619;DHT22;8928;51.678;6.074;2023-11-21T20:18:44;5.20;99.90
17619;DHT22;8928;51.678;6.074;2023-11-21T20:29:18;5.30;99.90
17619;DHT22;8928;51.678;6.074;2023-11-21T20:32:05;5.20;99.90
17619;DHT22;8928;51.678;6.074;2023-11-21T20:34:55;5.20;99.90
17619;DHT22;8928;51.678;6.074;2023-11-21T20:37:42;5.20;99.90
17619;DHT22;8928;51.678;6.074;2023-11-21T20:40:29;5.10;99.90
17619;DHT22;8928;51.678;6.074;2023-11-21T20:48:25;5.00;99.90
17619;DHT22;8928;51.678;6.074;2023-11-21T20:56:26;5.00;99.90
17619;DHT22;8928;51.678;6.074;2023-11-21T20:59:15;5.00;99.90
17619;DHT22;8928;51.678;6.074;2023-11-21T21:07:13;4.80;99.90
17619;DHT22;8928;51.678;6.074;2023-11-21T21:10:00;4.70;99.90
17619;DHT22;8928;51.678;6.074;2023-11-21T21:12:49;4.70;99.90